createdAt,value
2019-05-26T00:02:19.333Z,16.47
2019-05-26T00:07:30.679Z,16.47
2019-05-26T00:12:28.077Z,16.52
2019-05-26T00:17:31.474Z,16.55
2019-05-26T00:22:35.112Z,16.52
2019-05-26T00:27:38.514Z,16.35
2019-05-26T00:32:42.271Z,16.27
2019-05-26T00:37:49.691Z,16.42
2019-05-26T00:42:51.426Z,16.46
2019-05-26T00:47:55.165Z,16.38
2019-05-26T00:52:59.540Z,16.45
2019-05-26T00:58:03.037Z,16.46
2019-05-26T01:03:06.468Z,16.42
2019-05-26T01:08:10.049Z,16.33
2019-05-26T01:13:13.756Z,16.33
2019-05-26T01:18:17.155Z,16.35
2019-05-26T01:23:20.792Z,16.28
2019-05-26T01:28:24.195Z,16.20
2019-05-26T01:33:27.606Z,16.01
2019-05-26T01:38:31.742Z,15.95
2019-05-26T01:43:35.143Z,15.92
2019-05-26T01:48:38.902Z,15.99
2019-05-26T01:53:42.274Z,16.08
2019-05-26T01:58:45.668Z,15.85
2019-05-26T02:03:49.326Z,15.88
2019-05-26T02:08:52.725Z,15.95
2019-05-26T02:13:56.118Z,16.02
2019-05-26T02:18:59.508Z,16.05
2019-05-26T02:24:02.917Z,15.83
2019-05-26T02:29:06.549Z,15.87
2019-05-26T02:34:09.962Z,15.93
2019-05-26T02:39:13.349Z,15.93
2019-05-26T02:44:16.747Z,15.89
2019-05-26T02:49:20.142Z,15.95
2019-05-26T02:54:23.784Z,15.99
2019-05-26T02:59:27.182Z,15.97
2019-05-26T03:04:30.591Z,15.99
2019-05-26T03:09:36.793Z,15.98
2019-05-26T03:14:43.579Z,15.97
2019-05-26T03:19:49.180Z,15.92
2019-05-26T03:24:53.892Z,15.88
2019-05-26T03:29:57.522Z,15.75
2019-05-26T03:35:00.927Z,15.63
2019-05-26T03:40:07.061Z,15.38
2019-05-26T03:45:12.049Z,15.26
2019-05-26T03:50:15.772Z,15.00
2019-05-26T03:55:19.490Z,14.74
2019-05-26T04:00:24.355Z,14.74
2019-05-26T04:05:27.757Z,14.68
2019-05-26T04:10:31.433Z,14.87
2019-05-26T04:15:35.000Z,14.96
2019-05-26T04:20:38.714Z,15.01
2019-05-26T04:25:42.349Z,15.02
2019-05-26T04:30:45.752Z,14.90
2019-05-26T04:35:49.469Z,14.85
2019-05-26T04:40:53.200Z,14.77
2019-05-26T04:45:56.637Z,14.97
2019-05-26T04:51:00.039Z,14.97
2019-05-26T04:56:03.453Z,15.05
2019-05-26T05:01:06.911Z,15.04
2019-05-26T05:06:10.319Z,15.08
2019-05-26T05:11:13.718Z,15.20
2019-05-26T05:16:17.396Z,15.29
2019-05-26T05:21:20.801Z,15.39
2019-05-26T05:26:24.529Z,15.44
2019-05-26T05:31:27.985Z,15.66
2019-05-26T05:36:31.665Z,15.66
2019-05-26T05:41:35.297Z,15.74
2019-05-26T05:46:38.755Z,15.76
2019-05-26T05:51:42.250Z,15.95
2019-05-26T05:56:45.655Z,15.95
2019-05-26T06:01:49.061Z,16.01
2019-05-26T06:06:52.763Z,15.98
2019-05-26T06:11:57.161Z,15.94
2019-05-26T06:17:01.019Z,15.96
2019-05-26T06:22:05.066Z,16.11
2019-05-26T06:27:08.454Z,16.14
2019-05-26T06:32:12.177Z,16.28
2019-05-26T06:37:15.699Z,16.36
2019-05-26T06:42:19.427Z,16.45
2019-05-26T06:47:22.826Z,16.55
2019-05-26T06:52:26.467Z,16.67
2019-05-26T06:57:29.940Z,16.76
2019-05-26T07:02:33.342Z,16.85
2019-05-26T07:07:36.996Z,16.90
2019-05-26T07:12:40.731Z,17.06
2019-05-26T07:17:44.684Z,17.16
2019-05-26T07:22:48.084Z,17.30
2019-05-26T07:27:51.791Z,17.33
2019-05-26T07:32:55.479Z,17.36
2019-05-26T07:37:59.116Z,17.57
2019-05-26T07:43:02.754Z,17.74
2019-05-26T07:48:06.215Z,17.85
2019-05-26T07:53:09.657Z,17.97
2019-05-26T07:58:13.032Z,18.15
2019-05-26T08:03:16.442Z,18.24
2019-05-26T08:08:20.146Z,18.33
2019-05-26T08:13:23.764Z,18.50
2019-05-26T08:18:27.439Z,18.64
2019-05-26T08:23:31.136Z,18.87
2019-05-26T08:28:34.537Z,19.15
2019-05-26T08:33:37.935Z,19.30
2019-05-26T08:38:41.326Z,19.49
2019-05-26T08:43:44.981Z,19.53
2019-05-26T08:48:48.363Z,19.65
2019-05-26T08:53:51.998Z,19.94
2019-05-26T08:58:55.632Z,20.02
2019-05-26T09:03:59.285Z,20.20
2019-05-26T09:09:02.676Z,20.47
2019-05-26T09:14:06.072Z,20.54
2019-05-26T09:19:09.696Z,20.64
2019-05-26T09:24:13.140Z,20.82
2019-05-26T09:29:16.538Z,20.98
2019-05-26T09:34:19.928Z,21.13
2019-05-26T09:39:23.558Z,21.19
2019-05-26T09:44:27.187Z,21.38
2019-05-26T09:49:30.812Z,21.37
2019-05-26T09:54:34.206Z,21.71
2019-05-26T09:59:37.592Z,21.51
2019-05-26T10:04:40.980Z,21.61
2019-05-26T10:09:44.617Z,21.34
2019-05-26T10:14:48.264Z,21.01
2019-05-26T10:19:51.891Z,21.07
2019-05-26T10:24:55.279Z,21.25
2019-05-26T10:29:58.668Z,21.53
2019-05-26T10:35:02.412Z,21.64
2019-05-26T10:40:07.177Z,21.36
2019-05-26T10:45:11.219Z,21.28
2019-05-26T10:50:16.454Z,21.58
2019-05-26T10:55:19.856Z,22.02
2019-05-26T11:00:23.594Z,22.13
2019-05-26T11:05:27.313Z,21.99
2019-05-26T11:10:30.709Z,22.11
2019-05-26T11:15:34.641Z,22.25
2019-05-26T11:20:38.088Z,22.42
2019-05-26T11:25:42.317Z,22.46
2019-05-26T11:30:45.738Z,22.86
2019-05-26T11:35:49.424Z,23.12
2019-05-26T11:40:53.159Z,23.21
2019-05-26T11:45:56.838Z,23.24
2019-05-26T11:51:00.487Z,23.34
2019-05-26T11:56:03.944Z,23.37
2019-05-26T12:01:07.353Z,23.51
2019-05-26T12:06:10.744Z,23.84
2019-05-26T12:11:14.454Z,24.25
2019-05-26T12:16:17.849Z,24.12
2019-05-26T12:21:21.582Z,24.03
2019-05-26T12:26:25.033Z,24.24
2019-05-26T12:31:28.425Z,24.29
2019-05-26T12:36:32.074Z,24.66
2019-05-26T12:41:37.390Z,25.00
2019-05-26T12:46:40.584Z,24.77
2019-05-26T12:51:44.055Z,24.98
2019-05-26T12:56:47.443Z,25.42
2019-05-26T13:01:50.846Z,25.16
2019-05-26T13:06:54.560Z,24.75
2019-05-26T13:11:58.300Z,25.29
2019-05-26T13:17:01.871Z,25.23
2019-05-26T13:22:05.727Z,25.05
2019-05-26T13:27:09.370Z,25.06
2019-05-26T13:32:13.068Z,25.05
2019-05-26T13:37:16.467Z,25.26
2019-05-26T13:42:20.178Z,25.51
2019-05-26T13:47:26.535Z,25.64
2019-05-26T13:52:28.943Z,26.12
2019-05-26T13:57:32.597Z,26.49
2019-05-26T14:02:36.319Z,26.79
2019-05-26T14:07:39.945Z,26.48
2019-05-26T14:12:43.345Z,25.85
2019-05-26T14:17:46.929Z,25.49
2019-05-26T14:22:50.427Z,25.75
2019-05-26T14:27:54.101Z,26.01
2019-05-26T14:32:57.825Z,25.06
2019-05-26T14:38:01.221Z,24.45
2019-05-26T14:43:05.473Z,24.19
2019-05-26T14:48:09.206Z,24.14
2019-05-26T14:53:12.916Z,23.97
2019-05-26T14:58:16.893Z,24.01
2019-05-26T15:03:20.670Z,23.93
2019-05-26T15:08:24.116Z,23.86
2019-05-26T15:13:27.514Z,23.78
2019-05-26T15:18:30.950Z,23.73
2019-05-26T15:23:34.576Z,23.84
2019-05-26T15:28:37.970Z,23.95
2019-05-26T15:33:41.600Z,24.81
2019-05-26T15:38:44.996Z,25.79
2019-05-26T15:43:51.309Z,26.14
2019-05-26T15:48:54.704Z,26.26
2019-05-26T15:53:58.392Z,26.42
2019-05-26T15:59:02.081Z,26.50
2019-05-26T16:04:05.723Z,26.92
2019-05-26T16:09:09.109Z,27.28
2019-05-26T16:14:12.832Z,27.60
2019-05-26T16:19:16.566Z,27.39
2019-05-26T16:24:20.209Z,27.04
2019-05-26T16:29:23.602Z,26.83
2019-05-26T16:34:27.068Z,26.86
2019-05-26T16:39:36.977Z,26.81
2019-05-26T16:44:35.977Z,26.51
2019-05-26T16:49:39.654Z,26.49
2019-05-26T16:54:43.485Z,26.54
2019-05-26T16:59:47.204Z,26.45
2019-05-26T17:04:50.879Z,26.18
2019-05-26T17:09:54.252Z,26.10
2019-05-26T17:14:57.646Z,26.07
2019-05-26T17:20:01.121Z,26.16
2019-05-26T17:25:05.455Z,26.02
2019-05-26T17:30:09.786Z,25.91
2019-05-26T17:35:13.349Z,25.94
2019-05-26T17:40:17.460Z,26.23
2019-05-26T17:45:21.155Z,26.15
2019-05-26T17:50:24.692Z,26.20
2019-05-26T17:55:28.078Z,26.38
2019-05-26T18:00:31.499Z,26.51
2019-05-26T18:05:35.121Z,26.59
2019-05-26T18:10:38.513Z,26.65
2019-05-26T18:15:42.007Z,26.57
2019-05-26T18:20:45.757Z,26.44
2019-05-26T18:25:49.522Z,26.26
2019-05-26T18:30:52.916Z,25.95
2019-05-26T18:35:56.553Z,25.27
2019-05-26T18:41:00.273Z,24.68
2019-05-26T18:46:03.910Z,24.22
2019-05-26T18:51:07.306Z,23.72
2019-05-26T18:56:10.754Z,22.85
2019-05-26T19:01:14.190Z,22.04
2019-05-26T19:06:17.569Z,21.15
2019-05-26T19:11:20.998Z,20.59
2019-05-26T19:16:24.394Z,20.05
2019-05-26T19:21:27.836Z,19.78
2019-05-26T19:26:31.301Z,19.75
2019-05-26T19:31:34.698Z,19.74
2019-05-26T19:36:38.352Z,19.54
2019-05-26T19:41:41.753Z,19.20
2019-05-26T19:46:45.168Z,19.09
2019-05-26T19:51:48.922Z,18.86
2019-05-26T19:56:52.610Z,18.77
2019-05-26T20:01:56.230Z,18.58
2019-05-26T20:06:59.627Z,18.48
2019-05-26T20:12:03.365Z,18.41
2019-05-26T20:17:06.819Z,18.10
2019-05-26T20:22:10.219Z,17.90
2019-05-26T20:27:13.915Z,17.80
2019-05-26T20:32:17.638Z,17.89
2019-05-26T20:37:21.567Z,17.89
2019-05-26T20:42:24.931Z,17.73
2019-05-26T20:47:28.429Z,17.66
2019-05-26T20:52:31.884Z,17.79
2019-05-26T20:57:35.627Z,17.64
2019-05-26T21:02:39.351Z,17.65
2019-05-26T21:07:42.749Z,17.70
2019-05-26T21:12:46.214Z,17.71
2019-05-26T21:17:49.605Z,17.69
2019-05-26T21:22:53.314Z,17.47
2019-05-26T21:27:56.717Z,17.46
2019-05-26T21:33:00.114Z,17.54
2019-05-26T21:38:03.698Z,17.47
2019-05-26T21:43:07.380Z,17.28
2019-05-26T21:48:11.096Z,17.39
2019-05-26T21:53:14.727Z,17.48
2019-05-26T21:58:18.124Z,17.37
2019-05-26T22:03:21.888Z,17.05
2019-05-26T22:08:25.251Z,16.75
2019-05-26T22:13:28.943Z,16.57
2019-05-26T22:18:32.343Z,16.55
2019-05-26T22:23:35.740Z,16.43
2019-05-26T22:28:39.440Z,16.29
2019-05-26T22:33:42.832Z,16.26
2019-05-26T22:38:46.471Z,16.09
2019-05-26T22:43:50.152Z,16.01
2019-05-26T22:48:53.544Z,15.95
2019-05-26T22:53:57.172Z,15.84
2019-05-26T22:59:00.848Z,15.26
2019-05-26T23:04:04.578Z,15.87
2019-05-26T23:09:08.134Z,15.87
2019-05-26T23:14:11.806Z,16.18
2019-05-26T23:19:19.358Z,16.35
2019-05-26T23:24:20.933Z,16.46
2019-05-26T23:29:24.327Z,16.11
2019-05-26T23:34:27.726Z,15.48
2019-05-26T23:39:31.357Z,15.55
2019-05-26T23:44:35.052Z,15.81
2019-05-26T23:49:38.447Z,15.88
2019-05-26T23:54:42.185Z,15.82
2019-05-26T23:59:45.588Z,15.81
